Vendor, Arkansas
Current Conditions -  °F | °C
As of 7:53 AM on Thursday 18 Dec 2014 (Local Time) from KHRO Reporting Station
Haze Haze  
Wind Chill: -3°   Ceiling: 200
Heat Index:   Visibility: 1.5mi
Dew Point:   Wind: 8mph
Humidity: 100%   Direction: 130°SE
Pressure: 30.18"   Gusts: NA
Location:  35.95°N, 93.08°W
Report Text: KHRO 181353Z AUTO 13007KT 1 1/2SM BR OVC002 01/01 A3018 RMK AO2 SLP231 T00060006
Loading
Personal Weather Stations






























Interactive Weather Map New forecast layout! Learn more

10-Day Weather Forecast

Advertisements
Track Severe Weather on mobile